Time;durP1;ratioP1;P1;durP2;ratioP2;P2;SDS_P1;SDS_P2;PMS_P1;PMS_P2;Temp;Humidity;BMP_temperature;BMP_pressure;BME280_temperature;BME280_humidity;BME280_pressure;Samples;Min_cycle;Max_cycle;Signal;HPM_P1;HPM_P2
2022/12/06 00:01:22;;;;;;;5.03;3.58;;;3.10;94.80;;;;;;4953558;29;20225;-64
2022/12/06 00:03:53;;;;;;;4.43;3.15;;;3.10;94.80;;;;;;4954004;29;20278;-65
2022/12/06 00:06:22;;;;;;;5.25;3.30;;;3.10;94.60;;;;;;4953688;29;20229;-64
2022/12/06 00:08:50;;;;;;;5.88;3.75;;;3.10;94.80;;;;;;4953867;29;20220;-64
2022/12/06 00:11:20;;;;;;;4.97;3.50;;;3.10;94.80;;;;;;4952984;29;20194;-65
2022/12/06 00:13:47;;;;;;;6.20;2.50;;;3.20;94.90;;;;;;4953990;29;20572;-64
2022/12/06 00:16:16;;;;;;;6.93;2.60;;;3.20;94.90;;;;;;4953241;29;20197;-65
2022/12/06 00:18:47;;;;;;;5.03;3.25;;;3.20;94.50;;;;;;4953685;29;20197;-65
2022/12/06 00:21:16;;;;;;;4.22;2.70;;;3.20;94.50;;;;;;4952145;29;20401;-65
2022/12/06 00:23:45;;;;;;;3.75;2.50;;;3.20;94.40;;;;;;4955077;28;20918;-65
2022/12/06 00:26:13;;;;;;;4.15;3.35;;;3.20;94.40;;;;;;4956310;29;20202;-64
2022/12/06 00:28:41;;;;;;;4.78;3.00;;;3.20;94.30;;;;;;4957087;29;20210;-65
2022/12/06 00:31:10;;;;;;;3.95;3.00;;;3.20;94.10;;;;;;4956448;29;20220;-64
2022/12/06 00:33:37;;;;;;;4.80;3.33;;;3.20;93.70;;;;;;4957071;29;20201;-64
2022/12/06 00:36:09;;;;;;;6.43;3.97;;;3.10;93.60;;;;;;4956453;29;20707;-65
2022/12/06 00:38:37;;;;;;;5.85;3.33;;;3.10;93.90;;;;;;4956911;29;20240;-64
2022/12/06 00:41:05;;;;;;;6.85;4.15;;;3.10;94.10;;;;;;4956486;29;20232;-65
2022/12/06 00:43:34;;;;;;;4.60;3.20;;;3.10;94.10;;;;;;4957062;29;20197;-64
2022/12/06 00:46:02;;;;;;;4.90;3.45;;;3.10;94.10;;;;;;4956608;29;20672;-65
2022/12/06 00:48:29;;;;;;;4.15;2.92;;;3.00;94.30;;;;;;4956602;29;20553;-64
2022/12/06 00:50:57;;;;;;;3.50;2.78;;;3.00;94.50;;;;;;4956372;29;20186;-64
2022/12/06 00:53:26;;;;;;;5.72;3.70;;;2.90;94.60;;;;;;4956894;29;20212;-65
2022/12/06 00:55:54;;;;;;;4.82;3.50;;;2.80;94.80;;;;;;4956157;29;20280;-65
2022/12/06 00:58:21;;;;;;;5.88;3.17;;;2.80;94.60;;;;;;4956865;29;20208;-65
2022/12/06 01:00:52;;;;;;;5.00;3.70;;;2.80;94.90;;;;;;4955944;29;20217;-64
2022/12/06 01:03:19;;;;;;;3.70;3.30;;;2.90;94.80;;;;;;4957423;29;20471;-64
2022/12/06 01:05:48;;;;;;;5.40;3.50;;;2.90;94.90;;;;;;4955460;29;20225;-64
2022/12/06 01:08:17;;;;;;;4.65;3.38;;;2.90;94.70;;;;;;4956438;29;20293;-64
2022/12/06 01:10:53;;;;;;;5.00;4.10;;;2.80;94.90;;;;;;4955861;29;20201;-65
2022/12/06 01:13:20;;;;;;;4.82;3.50;;;2.90;94.90;;;;;;4955983;29;20225;-65
2022/12/06 01:15:47;;;;;;;4.07;3.20;;;2.90;95.00;;;;;;4956654;29;20555;-65
2022/12/06 01:18:14;;;;;;;4.70;3.13;;;2.90;95.10;;;;;;4955762;29;20198;-65
2022/12/06 01:20:41;;;;;;;5.22;3.30;;;2.90;95.20;;;;;;4956210;28;20587;-65
2022/12/06 01:23:08;;;;;;;6.43;3.25;;;2.80;94.90;;;;;;4955754;29;20210;-65
2022/12/06 01:25:35;;;;;;;5.05;3.30;;;2.70;95.10;;;;;;4956612;29;20225;-64
2022/12/06 01:28:04;;;;;;;5.45;2.90;;;2.80;95.30;;;;;;4955688;29;20548;-65
2022/12/06 01:30:31;;;;;;;6.28;4.28;;;2.80;95.30;;;;;;4956426;29;20220;-65
2022/12/06 01:32:58;;;;;;;5.22;3.45;;;2.80;95.30;;;;;;4955411;29;20177;-65
2022/12/06 01:35:25;;;;;;;5.28;3.35;;;2.70;95.20;;;;;;4955126;28;20233;-65
2022/12/06 01:37:52;;;;;;;5.05;3.65;;;2.60;95.50;;;;;;4955525;29;20233;-65
2022/12/06 01:40:19;;;;;;;3.63;2.80;;;2.50;95.70;;;;;;4956054;29;20194;-65
2022/12/06 01:42:46;;;;;;;5.15;3.60;;;2.60;95.60;;;;;;4955117;29;20217;-65
2022/12/06 01:45:15;;;;;;;4.90;2.90;;;2.50;95.50;;;;;;4955755;29;20205;-65
2022/12/06 01:47:44;;;;;;;5.30;3.50;;;2.50;95.70;;;;;;4955017;29;20194;-65
2022/12/06 01:50:18;;;;;;;4.10;3.17;;;2.40;95.80;;;;;;4955730;29;20574;-65
2022/12/06 01:52:52;;;;;;;6.00;3.88;;;2.40;95.80;;;;;;4955136;29;20193;-65
2022/12/06 01:55:22;;;;;;;4.38;2.92;;;2.40;95.80;;;;;;4955518;29;20589;-65
2022/12/06 01:57:53;;;;;;;3.85;3.10;;;2.50;95.70;;;;;;4955088;29;20205;-65
2022/12/06 02:00:21;;;;;;;3.78;2.53;;;2.50;95.60;;;;;;4955524;29;20190;-65
2022/12/06 02:02:48;;;;;;;4.35;2.97;;;2.50;95.30;;;;;;4954979;29;20252;-65
2022/12/06 02:05:17;;;;;;;3.83;2.90;;;2.40;95.00;;;;;;4955179;29;20257;-65
2022/12/06 02:07:45;;;;;;;6.32;4.15;;;2.50;94.70;;;;;;4954786;29;20237;-65
2022/12/06 02:10:12;;;;;;;5.18;3.60;;;2.40;94.60;;;;;;4954049;29;20644;-65
2022/12/06 02:12:39;;;;;;;7.00;4.30;;;2.40;95.00;;;;;;4955536;29;20256;-65
2022/12/06 02:15:08;;;;;;;6.68;4.22;;;2.30;94.80;;;;;;4954501;29;20640;-65
2022/12/06 02:17:44;;;;;;;8.13;4.25;;;2.30;94.80;;;;;;4955405;29;20257;-65
2022/12/06 02:20:25;;;;;;;5.20;3.55;;;2.30;94.80;;;;;;4954023;29;20201;-65
2022/12/06 02:23:15;;;;;;;6.93;4.07;;;2.30;94.60;;;;;;4954858;29;20208;-65
2022/12/06 02:26:10;;;;;;;5.78;3.47;;;2.20;94.90;;;;;;4936104;29;20202;-65
2022/12/06 02:29:01;;;;;;;5.88;4.28;;;2.20;95.20;;;;;;4927722;29;20192;-65
2022/12/06 02:31:36;;;;;;;6.10;3.92;;;2.20;95.20;;;;;;4954034;29;20197;-65
2022/12/06 02:34:09;;;;;;;5.55;3.50;;;2.10;95.40;;;;;;4954305;29;20229;-65
2022/12/06 02:36:41;;;;;;;8.05;4.57;;;2.00;95.80;;;;;;4955028;29;20233;-65
2022/12/06 02:39:12;;;;;;;6.57;5.10;;;2.00;96.00;;;;;;4953949;29;20178;-65
2022/12/06 02:41:44;;;;;;;6.55;4.15;;;1.90;96.10;;;;;;4954953;29;20324;-65
2022/12/06 02:44:18;;;;;;;8.60;4.28;;;1.90;96.10;;;;;;4954592;29;20186;-65
2022/12/06 02:46:48;;;;;;;6.53;3.90;;;1.80;96.50;;;;;;4953123;28;20241;-65
2022/12/06 02:49:15;;;;;;;6.18;3.90;;;1.70;96.20;;;;;;4954806;29;20554;-65
2022/12/06 02:51:44;;;;;;;4.80;3.55;;;1.60;96.30;;;;;;4954055;29;20229;-65
2022/12/06 02:54:12;;;;;;;5.90;4.07;;;1.60;96.40;;;;;;4954757;29;20221;-65
2022/12/06 02:56:39;;;;;;;4.80;3.25;;;1.50;96.50;;;;;;4953842;29;20194;-65
2022/12/06 02:59:06;;;;;;;6.35;4.35;;;1.50;96.70;;;;;;4954538;29;20237;-65
2022/12/06 03:01:37;;;;;;;5.45;3.80;;;1.50;96.70;;;;;;4954571;29;20218;-65
2022/12/06 03:04:33;;;;;;;5.78;3.78;;;1.50;96.70;;;;;;4953914;29;20185;-65
2022/12/06 03:07:11;;;;;;;5.15;3.47;;;1.50;96.70;;;;;;4954000;29;20751;-64
2022/12/06 03:09:55;;;;;;;6.97;4.80;;;1.40;97.00;;;;;;4954727;29;20195;-65
2022/12/06 03:12:32;;;;;;;5.13;3.63;;;1.50;96.90;;;;;;4954154;29;20268;-65
2022/12/06 03:15:08;;;;;;;6.45;3.70;;;1.50;96.70;;;;;;4954758;29;20553;-65
2022/12/06 03:17:42;;;;;;;5.75;3.80;;;1.50;96.50;;;;;;4953268;29;20193;-64
2022/12/06 03:20:14;;;;;;;6.70;4.35;;;1.50;96.60;;;;;;4954359;29;20186;-64
2022/12/06 03:22:46;;;;;;;5.40;2.85;;;1.60;96.40;;;;;;4952603;29;20213;-64
2022/12/06 03:25:13;;;;;;;4.28;2.75;;;1.60;96.10;;;;;;4952859;29;20637;-64
2022/12/06 03:27:42;;;;;;;5.38;3.70;;;1.60;95.40;;;;;;4952514;29;20213;-65
2022/12/06 03:30:12;;;;;;;4.60;3.08;;;1.60;95.30;;;;;;4953820;29;20588;-64
2022/12/06 03:32:43;;;;;;;5.30;3.65;;;1.60;95.10;;;;;;4953723;29;20193;-64
2022/12/06 03:35:16;;;;;;;5.60;3.80;;;1.60;94.90;;;;;;4952152;29;20284;-64
2022/12/06 03:37:47;;;;;;;3.53;3.00;;;1.50;94.50;;;;;;4953705;29;20316;-64
2022/12/06 03:40:20;;;;;;;4.55;3.08;;;1.50;94.60;;;;;;4954617;29;20276;-64
2022/12/06 03:42:47;;;;;;;5.00;3.38;;;1.50;94.50;;;;;;4953810;29;20268;-64
2022/12/06 03:45:15;;;;;;;6.22;3.72;;;1.50;94.60;;;;;;4954393;29;20248;-64
2022/12/06 03:47:50;;;;;;;5.60;3.00;;;1.50;94.70;;;;;;4953274;29;20248;-64
2022/12/06 03:50:23;;;;;;;4.18;2.65;;;1.40;94.60;;;;;;4954131;29;20193;-64
2022/12/06 03:52:51;;;;;;;4.20;2.83;;;1.40;94.60;;;;;;4953695;28;20297;-64
2022/12/06 03:55:18;;;;;;;6.10;4.03;;;1.40;94.70;;;;;;4954198;29;20197;-64
2022/12/06 03:57:45;;;;;;;4.80;3.30;;;1.40;94.60;;;;;;4953336;28;20809;-64
2022/12/06 04:00:15;;;;;;;4.88;3.45;;;1.40;94.50;;;;;;4957213;29;20194;-64
2022/12/06 04:02:42;;;;;;;5.07;3.20;;;1.40;94.50;;;;;;4957399;29;20228;-64
2022/12/06 04:05:09;;;;;;;5.78;3.58;;;1.40;94.60;;;;;;4957955;29;20580;-64
2022/12/06 04:07:38;;;;;;;4.32;3.20;;;1.30;94.50;;;;;;4958296;29;20637;-64
2022/12/06 04:10:07;;;;;;;4.38;3.38;;;1.30;94.30;;;;;;4957276;29;20189;-64
2022/12/06 04:15:21;;;;;;;4.90;2.95;;;1.30;94.10;;;;;;4951001;29;20309;-64
2022/12/06 04:23:16;;;;;;;4.88;2.67;;;1.20;94.40;;;;;;4956345;29;20287;-64
2022/12/06 04:25:43;;;;;;;3.55;2.72;;;1.20;94.50;;;;;;4958144;29;20236;-64
2022/12/06 04:39:09;;;;;;;4.68;3.22;;;1.20;93.90;;;;;;4956808;29;20605;-64
2022/12/06 04:44:21;;;;;;;5.65;3.60;;;1.30;94.70;;;;;;4957071;29;20695;-64
2022/12/06 04:46:48;;;;;;;6.25;3.45;;;1.30;94.60;;;;;;4957562;29;20193;-64
2022/12/06 04:49:15;;;;;;;4.53;2.63;;;1.40;94.50;;;;;;4957153;29;20190;-64
2022/12/06 04:51:42;;;;;;;4.75;3.42;;;1.30;94.50;;;;;;4957387;29;20281;-64
2022/12/06 04:54:11;;;;;;;4.60;3.08;;;1.40;94.70;;;;;;4956527;29;20225;-64
2022/12/06 04:56:38;;;;;;;5.18;3.30;;;1.40;94.80;;;;;;4955831;29;20213;-64
2022/12/06 04:59:05;;;;;;;5.60;3.55;;;1.40;94.50;;;;;;4957321;29;20296;-64
2022/12/06 05:01:32;;;;;;;4.90;3.97;;;1.50;94.50;;;;;;4956531;29;20639;-64
2022/12/06 05:03:59;;;;;;;5.50;3.10;;;1.40;94.40;;;;;;4956886;29;20685;-64
2022/12/06 05:06:26;;;;;;;7.15;3.95;;;1.40;94.40;;;;;;4955542;29;20205;-64
2022/12/06 05:08:53;;;;;;;6.55;4.05;;;1.30;94.60;;;;;;4938210;29;20594;-64
2022/12/06 05:11:22;;;;;;;7.55;4.90;;;1.30;94.90;;;;;;4937643;29;20191;-65
2022/12/06 05:13:49;;;;;;;6.38;4.88;;;1.30;95.00;;;;;;4937497;29;20242;-64
2022/12/06 05:16:16;;;;;;;7.05;5.38;;;1.20;95.50;;;;;;4938048;29;20201;-64
2022/12/06 05:18:43;;;;;;;7.15;5.30;;;1.10;95.50;;;;;;4956863;29;20198;-64
2022/12/06 05:21:14;;;;;;;5.57;4.20;;;1.00;95.60;;;;;;4957263;29;20197;-64
2022/12/06 05:23:41;;;;;;;6.45;4.28;;;1.00;95.70;;;;;;4956384;29;20189;-64
2022/12/06 05:26:12;;;;;;;9.70;4.68;;;0.90;96.00;;;;;;4956104;29;20185;-65
2022/12/06 05:28:41;;;;;;;7.65;5.20;;;0.90;95.90;;;;;;4956889;29;20289;-65
2022/12/06 05:31:08;;;;;;;5.80;4.50;;;1.00;95.80;;;;;;4955693;29;20204;-64
2022/12/06 05:33:36;;;;;;;7.60;4.88;;;1.00;95.50;;;;;;4956497;29;20194;-65
2022/12/06 05:36:07;;;;;;;7.32;4.90;;;1.00;95.60;;;;;;4956200;29;20189;-65
2022/12/06 05:38:35;;;;;;;7.93;4.85;;;0.90;95.70;;;;;;4956614;29;20249;-64
2022/12/06 05:41:02;;;;;;;9.45;4.47;;;1.00;95.80;;;;;;4955348;29;20272;-65
2022/12/06 05:43:30;;;;;;;7.35;5.65;;;1.00;95.80;;;;;;4955976;29;20261;-65
2022/12/06 05:45:58;;;;;;;6.43;4.80;;;1.00;95.70;;;;;;4955217;29;20201;-64
2022/12/06 05:48:26;;;;;;;7.72;5.47;;;1.00;95.60;;;;;;4956672;29;20543;-65
2022/12/06 05:50:53;;;;;;;6.70;4.50;;;1.00;95.60;;;;;;4955948;29;20502;-65
2022/12/06 05:53:21;;;;;;;5.80;4.45;;;1.00;95.40;;;;;;4954237;28;20226;-65
2022/12/06 05:55:48;;;;;;;6.72;4.50;;;1.00;95.20;;;;;;4955748;29;20704;-65
2022/12/06 05:58:16;;;;;;;5.60;3.90;;;1.00;94.90;;;;;;4956356;29;20237;-64
2022/12/06 06:00:47;;;;;;;7.75;5.63;;;1.00;94.70;;;;;;4955503;29;20245;-64
2022/12/06 06:03:16;;;;;;;8.60;5.55;;;1.00;94.60;;;;;;4956471;29;20934;-64
2022/12/06 06:05:48;;;;;;;6.38;4.75;;;1.00;94.40;;;;;;4955294;29;20616;-64
2022/12/06 06:08:15;;;;;;;6.75;5.45;;;1.00;94.30;;;;;;4955747;29;20204;-66
2022/12/06 06:10:42;;;;;;;5.78;4.10;;;1.00;93.80;;;;;;4950302;29;20292;-64
2022/12/06 06:13:10;;;;;;;7.95;4.75;;;0.90;93.50;;;;;;4951954;28;20257;-65
2022/12/06 06:15:37;;;;;;;8.65;4.57;;;0.80;93.50;;;;;;4955066;29;20204;-64
2022/12/06 06:18:05;;;;;;;5.32;3.58;;;0.80;93.70;;;;;;4952864;29;20647;-64
2022/12/06 06:20:34;;;;;;;5.55;3.75;;;0.80;94.00;;;;;;4953029;29;20646;-64
2022/12/06 06:23:01;;;;;;;6.32;4.82;;;0.70;94.00;;;;;;4954906;28;20572;-65
2022/12/06 06:25:29;;;;;;;9.38;6.40;;;0.70;93.90;;;;;;4955123;29;20193;-64
2022/12/06 06:27:56;;;;;;;9.02;6.07;;;0.70;93.80;;;;;;4955054;29;20193;-64
2022/12/06 06:30:23;;;;;;;7.25;5.90;;;0.70;93.70;;;;;;4955533;29;20198;-65
2022/12/06 06:32:51;;;;;;;7.65;5.80;;;0.70;93.90;;;;;;4955395;29;20661;-65
2022/12/06 06:35:18;;;;;;;7.53;5.55;;;0.60;94.00;;;;;;4952300;29;20202;-65
2022/12/06 06:37:47;;;;;;;8.38;6.72;;;0.60;94.00;;;;;;4954668;29;20248;-65
2022/12/06 06:40:14;;;;;;;8.45;4.60;;;0.50;93.90;;;;;;4955101;29;20190;-65
2022/12/06 06:42:41;;;;;;;7.32;4.68;;;0.60;94.00;;;;;;4955343;29;20222;-65
2022/12/06 06:45:11;;;;;;;9.57;5.82;;;0.50;94.00;;;;;;4954732;29;20198;-65
2022/12/06 06:47:40;;;;;;;9.48;5.70;;;0.60;94.10;;;;;;4955145;29;20556;-65
2022/12/06 06:50:12;;;;;;;10.27;8.00;;;0.50;94.10;;;;;;4952634;29;20273;-65
2022/12/06 06:52:40;;;;;;;12.93;8.05;;;0.60;94.00;;;;;;4943254;29;20582;-65
2022/12/06 06:55:09;;;;;;;10.10;8.48;;;0.50;94.10;;;;;;4947548;29;20190;-64
2022/12/06 06:57:36;;;;;;;11.43;9.05;;;0.50;94.00;;;;;;4946065;29;20531;-65
2022/12/06 07:00:04;;;;;;;14.38;10.63;;;0.50;94.20;;;;;;4943539;29;20732;-65
2022/12/06 07:02:32;;;;;;;16.23;10.95;;;0.40;94.30;;;;;;4948716;29;20694;-64
2022/12/06 07:04:59;;;;;;;13.35;8.10;;;0.30;94.10;;;;;;4954413;28;20708;-65
2022/12/06 07:07:30;;;;;;;14.85;10.20;;;0.30;94.30;;;;;;4953233;29;20205;-65
2022/12/06 07:09:57;;;;;;;11.65;7.70;;;0.30;94.60;;;;;;4954231;29;20280;-65
2022/12/06 07:12:25;;;;;;;10.48;7.93;;;0.30;94.90;;;;;;4954829;29;20252;-65
2022/12/06 07:14:53;;;;;;;11.30;7.68;;;0.40;95.50;;;;;;4954834;29;20249;-70
2022/12/06 07:17:20;;;;;;;13.27;8.57;;;0.60;96.20;;;;;;4954545;29;20287;-65
2022/12/06 07:19:48;;;;;;;11.68;6.95;;;0.80;96.60;;;;;;4954546;29;20201;-65
2022/12/06 07:22:15;;;;;;;6.47;4.95;;;1.10;96.80;;;;;;4952309;29;20739;-64
2022/12/06 07:24:42;;;;;;;7.80;5.47;;;1.40;95.90;;;;;;4953189;29;20577;-65
2022/12/06 07:27:09;;;;;;;8.13;5.35;;;1.70;95.00;;;;;;4954427;29;20205;-64
2022/12/06 07:29:37;;;;;;;13.60;10.13;;;2.10;95.20;;;;;;4950218;28;20645;-64
2022/12/06 07:32:04;;;;;;;19.98;8.30;;;2.60;94.60;;;;;;4954009;29;20217;-65
2022/12/06 07:34:32;;;;;;;9.70;6.82;;;2.90;92.70;;;;;;4959268;28;20193;-64
2022/12/06 07:36:59;;;;;;;11.27;9.63;;;3.10;93.10;;;;;;4960226;29;20206;-65
2022/12/06 07:39:26;;;;;;;13.23;8.50;;;3.40;93.20;;;;;;4959551;28;20224;-65
2022/12/06 07:45:04;;;;;;;14.27;10.43;;;3.90;90.10;;;;;;4917538;29;20720;-65
2022/12/06 07:47:35;;;;;;;15.48;10.38;;;4.00;87.10;;;;;;4915038;29;20191;-65
2022/12/06 07:50:06;;;;;;;10.93;7.65;;;3.90;85.80;;;;;;4937852;29;20217;-65
2022/12/06 07:52:35;;;;;;;11.63;8.13;;;3.90;85.10;;;;;;4942403;28;20244;-65
2022/12/06 07:55:03;;;;;;;8.52;5.80;;;3.80;84.70;;;;;;4957079;29;20658;-65
2022/12/06 07:57:30;;;;;;;8.20;4.50;;;3.80;84.50;;;;;;4951788;28;20281;-64
2022/12/06 07:59:59;;;;;;;9.20;6.00;;;3.60;85.10;;;;;;4958290;28;20283;-64
2022/12/06 08:02:27;;;;;;;7.45;4.88;;;3.30;86.10;;;;;;4958927;28;20221;-65
2022/12/06 08:04:55;;;;;;;8.00;5.85;;;3.20;86.70;;;;;;4956458;29;20221;-64
2022/12/06 08:07:23;;;;;;;9.07;6.32;;;3.10;87.60;;;;;;4959056;28;20271;-64
2022/12/06 08:09:52;;;;;;;10.07;7.22;;;3.10;87.70;;;;;;4956846;29;20320;-65
2022/12/06 08:12:20;;;;;;;8.45;5.47;;;3.10;88.50;;;;;;4959200;28;20731;-64
2022/12/06 08:14:47;;;;;;;7.25;5.45;;;3.20;89.80;;;;;;4956282;29;20567;-64
2022/12/06 08:17:21;;;;;;;6.55;5.38;;;3.50;90.50;;;;;;4958899;29;20252;-64
2022/12/06 08:19:48;;;;;;;7.40;5.43;;;3.80;90.30;;;;;;4957880;28;20676;-64
2022/12/06 08:22:15;;;;;;;7.20;5.68;;;4.10;90.40;;;;;;4958516;29;20296;-65
2022/12/06 08:24:42;;;;;;;12.10;5.05;;;4.30;89.50;;;;;;4958234;29;20324;-64
2022/12/06 08:27:09;;;;;;;9.85;5.93;;;4.60;89.10;;;;;;4958137;29;20194;-64
2022/12/06 08:29:36;;;;;;;6.90;4.95;;;4.70;86.90;;;;;;4959093;28;20344;-64
2022/12/06 08:32:03;;;;;;;10.98;5.45;;;4.90;85.30;;;;;;4958063;29;20197;-64
2022/12/06 08:34:32;;;;;;;6.35;4.65;;;4.80;86.40;;;;;;4958652;28;20279;-65
2022/12/06 08:36:59;;;;;;;11.02;5.85;;;4.80;86.00;;;;;;4959345;28;20252;-65
2022/12/06 08:39:27;;;;;;;7.03;5.70;;;4.80;86.20;;;;;;4958792;28;20225;-65
2022/12/06 08:42:02;;;;;;;9.75;5.55;;;4.80;84.90;;;;;;4952913;29;20190;-65
2022/12/06 08:44:31;;;;;;;7.65;4.28;;;4.80;84.80;;;;;;4957349;28;20197;-65
2022/12/06 08:46:59;;;;;;;6.82;4.28;;;4.70;84.10;;;;;;4954992;29;20227;-64
2022/12/06 08:49:27;;;;;;;6.15;4.55;;;4.70;84.80;;;;;;4952034;29;20277;-65
2022/12/06 08:51:56;;;;;;;7.88;6.00;;;4.60;84.50;;;;;;4953178;29;20249;-67
2022/12/06 08:54:25;;;;;;;8.20;4.90;;;4.60;84.80;;;;;;4954250;29;20209;-64
2022/12/06 08:56:52;;;;;;;7.13;6.32;;;4.60;85.60;;;;;;4952338;29;20538;-64
2022/12/06 08:59:20;;;;;;;8.32;6.10;;;4.60;86.30;;;;;;4955593;29;20193;-64
2022/12/06 09:01:47;;;;;;;7.90;4.75;;;4.60;86.30;;;;;;4954275;29;20355;-65
2022/12/06 09:04:15;;;;;;;5.85;3.63;;;4.60;86.30;;;;;;4951706;28;20210;-64
2022/12/06 09:06:43;;;;;;;5.80;4.00;;;4.70;86.20;;;;;;4954725;29;20238;-64
2022/12/06 09:09:13;;;;;;;6.68;4.10;;;4.70;86.20;;;;;;4954345;29;20206;-64
2022/12/06 09:11:42;;;;;;;6.85;4.38;;;4.70;86.00;;;;;;4954278;29;20186;-64
2022/12/06 09:14:12;;;;;;;5.20;3.42;;;4.70;85.30;;;;;;4954033;28;20201;-65
2022/12/06 09:16:42;;;;;;;6.03;4.65;;;4.70;86.20;;;;;;4954468;29;20265;-64
2022/12/06 09:19:09;;;;;;;6.80;4.65;;;4.80;86.50;;;;;;4955071;29;20297;-65
2022/12/06 09:21:39;;;;;;;7.90;5.28;;;4.80;86.70;;;;;;4955133;29;20573;-64
2022/12/06 09:24:07;;;;;;;7.65;4.60;;;4.80;86.60;;;;;;4954400;29;20690;-65
2022/12/06 09:26:36;;;;;;;6.63;4.85;;;4.80;86.70;;;;;;4955082;29;20193;-64
2022/12/06 09:29:03;;;;;;;9.32;5.70;;;4.90;87.10;;;;;;4953990;29;20256;-64
2022/12/06 09:31:30;;;;;;;12.85;6.07;;;4.80;86.10;;;;;;4952340;29;20197;-64
2022/12/06 09:33:58;;;;;;;11.43;6.10;;;4.80;86.20;;;;;;4954028;29;20229;-64
2022/12/06 09:36:27;;;;;;;7.65;6.20;;;4.80;86.40;;;;;;4954687;29;20241;-64
2022/12/06 09:38:58;;;;;;;5.97;4.30;;;4.70;86.10;;;;;;4954485;29;20205;-64
2022/12/06 09:42:05;;;;;;;4.75;4.13;;;4.70;86.50;;;;;;4953662;28;20204;-64
2022/12/06 09:45:04;;;;;;;5.63;3.35;;;4.70;86.60;;;;;;4952562;29;20214;-65
2022/12/06 09:47:48;;;;;;;5.90;3.75;;;4.70;87.30;;;;;;4936421;29;20226;-64
2022/12/06 09:50:23;;;;;;;4.35;3.22;;;4.70;87.10;;;;;;4951935;29;20198;-64
2022/12/06 09:53:14;;;;;;;5.32;3.22;;;4.70;87.60;;;;;;4948488;29;20518;-65
2022/12/06 09:55:56;;;;;;;5.38;3.42;;;4.70;87.30;;;;;;4954277;28;20260;-65
2022/12/06 09:58:36;;;;;;;4.50;2.92;;;4.80;87.00;;;;;;4950876;29;20264;-64
2022/12/06 10:01:13;;;;;;;5.22;3.28;;;4.80;87.50;;;;;;4953188;29;20252;-64
2022/12/06 10:03:56;;;;;;;5.30;3.10;;;4.80;88.10;;;;;;4953320;29;20249;-65
2022/12/06 10:06:25;;;;;;;5.18;3.40;;;4.90;87.80;;;;;;4950283;29;20738;-64
2022/12/06 10:09:07;;;;;;;4.68;3.33;;;4.90;86.80;;;;;;4953465;28;20256;-64
2022/12/06 10:11:52;;;;;;;4.90;3.22;;;4.90;87.60;;;;;;4953761;29;20264;-64
2022/12/06 10:14:35;;;;;;;6.82;4.45;;;4.90;87.20;;;;;;4950311;29;20240;-64
2022/12/06 10:17:11;;;;;;;6.60;3.85;;;5.00;87.80;;;;;;4952512;29;20217;-65
2022/12/06 10:19:54;;;;;;;5.75;4.20;;;5.10;88.10;;;;;;4950441;29;20208;-64
2022/12/06 10:22:33;;;;;;;7.35;3.35;;;5.20;87.70;;;;;;4950918;29;20620;-64
2022/12/06 10:25:08;;;;;;;4.63;3.10;;;5.20;87.60;;;;;;4953349;29;20233;-64
2022/12/06 10:27:38;;;;;;;5.88;2.92;;;5.30;86.90;;;;;;4954091;29;20283;-64
2022/12/06 10:30:09;;;;;;;4.75;2.75;;;5.30;87.60;;;;;;4953356;29;20574;-64
2022/12/06 10:33:04;;;;;;;5.20;3.10;;;5.40;88.00;;;;;;4952953;29;20209;-65
2022/12/06 10:35:40;;;;;;;4.20;2.78;;;5.50;88.40;;;;;;4951574;29;20193;-64
2022/12/06 10:38:20;;;;;;;4.05;2.75;;;5.50;88.20;;;;;;4950440;29;21571;-65
2022/12/06 10:40:55;;;;;;;4.82;3.75;;;5.60;88.20;;;;;;4951823;29;20189;-64
2022/12/06 10:43:28;;;;;;;6.50;4.47;;;5.60;87.20;;;;;;4950732;29;20256;-64
2022/12/06 10:49:00;;;;;;;7.15;4.38;;;5.70;86.90;;;;;;4953199;29;20505;-65
2022/12/06 10:51:38;;;;;;;6.07;3.63;;;5.70;86.00;;;;;;4953602;29;20248;-65
2022/12/06 10:54:16;;;;;;;5.45;2.65;;;5.70;85.80;;;;;;4951214;29;20202;-64
2022/12/06 10:56:50;;;;;;;4.15;1.92;;;5.70;85.30;;;;;;4952483;29;20577;-64
2022/12/06 10:59:29;;;;;;;4.32;2.55;;;5.80;85.40;;;;;;4950479;29;20197;-64
2022/12/06 11:02:03;;;;;;;5.20;3.25;;;5.80;85.60;;;;;;4951228;29;20570;-65
2022/12/06 11:04:33;;;;;;;5.00;3.15;;;5.80;85.60;;;;;;4948203;29;20229;-65
2022/12/06 11:07:05;;;;;;;4.25;2.85;;;5.90;86.00;;;;;;4953475;28;20660;-64
2022/12/06 11:09:38;;;;;;;5.45;3.40;;;5.90;85.70;;;;;;4951392;29;20214;-65
2022/12/06 11:12:18;;;;;;;6.03;3.72;;;5.80;84.50;;;;;;4949988;29;20719;-65
2022/12/06 11:14:51;;;;;;;5.43;3.70;;;5.70;84.70;;;;;;4952431;29;20229;-65
2022/12/06 11:17:24;;;;;;;4.82;3.25;;;5.70;84.60;;;;;;4953466;29;20225;-65
2022/12/06 11:19:55;;;;;;;5.10;3.70;;;5.70;85.60;;;;;;4952509;29;20228;-65
2022/12/06 11:22:32;;;;;;;5.60;3.50;;;5.80;86.40;;;;;;4949400;29;20229;-65
2022/12/06 11:25:05;;;;;;;4.85;2.97;;;5.90;87.00;;;;;;4952152;29;20225;-65
2022/12/06 11:27:42;;;;;;;5.28;4.20;;;5.90;87.20;;;;;;4948711;29;20259;-65
2022/12/06 11:30:15;;;;;;;6.97;4.13;;;6.00;87.70;;;;;;4950923;29;20177;-65
2022/12/06 11:32:51;;;;;;;5.25;4.15;;;6.00;87.90;;;;;;4945272;29;20194;-65
2022/12/06 11:35:21;;;;;;;8.77;5.10;;;6.00;87.90;;;;;;4952085;29;20205;-65
2022/12/06 11:37:58;;;;;;;7.32;5.28;;;6.10;87.90;;;;;;4951241;29;20206;-64
2022/12/06 11:40:28;;;;;;;6.53;5.47;;;6.10;88.00;;;;;;4950159;29;20296;-64
2022/12/06 11:43:00;;;;;;;6.88;5.32;;;6.10;87.80;;;;;;4949462;28;20276;-65
2022/12/06 11:45:31;;;;;;;8.32;4.70;;;6.10;87.70;;;;;;4955353;28;20194;-64
2022/12/06 11:48:02;;;;;;;7.65;6.00;;;6.10;87.60;;;;;;4952401;29;20201;-65
2022/12/06 11:50:30;;;;;;;8.77;6.65;;;6.10;87.30;;;;;;4952069;29;20190;-64
2022/12/06 11:53:02;;;;;;;9.80;6.25;;;6.10;87.10;;;;;;4952390;29;20704;-64
2022/12/06 11:55:35;;;;;;;8.32;6.30;;;6.10;87.00;;;;;;4952694;29;20198;-64
2022/12/06 11:58:07;;;;;;;10.15;6.07;;;6.10;86.70;;;;;;4952679;29;20674;-65
2022/12/06 12:00:34;;;;;;;7.88;5.78;;;6.10;86.90;;;;;;4949710;29;20677;-64
2022/12/06 12:03:03;;;;;;;8.75;6.97;;;6.10;87.40;;;;;;4952553;29;20190;-64
2022/12/06 12:05:37;;;;;;;9.27;6.78;;;6.10;86.90;;;;;;4950744;29;20218;-65
2022/12/06 12:08:06;;;;;;;9.23;6.35;;;6.00;86.60;;;;;;4952447;29;20252;-65
2022/12/06 12:10:37;;;;;;;9.60;6.97;;;6.00;86.90;;;;;;4952627;29;20276;-65
2022/12/06 12:16:06;;;;;;;10.70;8.05;;;6.00;87.10;;;;;;4951536;29;20216;-64
2022/12/06 12:18:37;;;;;;;9.98;7.40;;;6.00;87.30;;;;;;4952748;28;20190;-65
2022/12/06 12:21:08;;;;;;;13.18;9.75;;;6.00;87.20;;;;;;4954388;29;20249;-64
2022/12/06 12:23:38;;;;;;;12.38;8.43;;;5.90;86.60;;;;;;4956097;29;20218;-65
2022/12/06 12:26:13;;;;;;;11.27;6.97;;;5.90;86.30;;;;;;4950869;28;20649;-65
2022/12/06 12:28:41;;;;;;;11.85;6.95;;;5.80;85.90;;;;;;4950376;29;20224;-64
2022/12/06 12:31:10;;;;;;;9.48;5.95;;;5.80;86.40;;;;;;4954969;29;20201;-65
2022/12/06 12:33:39;;;;;;;9.95;5.57;;;5.70;86.40;;;;;;4954179;29;20193;-65
2022/12/06 12:36:15;;;;;;;15.02;8.60;;;5.70;87.50;;;;;;4954476;29;20280;-65
2022/12/06 12:38:50;;;;;;;14.10;9.30;;;5.70;87.00;;;;;;4954561;29;20652;-64
2022/12/06 12:41:24;;;;;;;14.55;8.50;;;5.80;87.10;;;;;;4953637;29;20189;-65
2022/12/06 12:43:59;;;;;;;9.27;6.65;;;5.80;87.10;;;;;;4952575;29;20232;-65
2022/12/06 12:46:28;;;;;;;9.32;5.80;;;5.80;87.60;;;;;;4955002;29;20297;-65
2022/12/06 12:49:20;;;;;;;8.32;5.47;;;5.80;87.90;;;;;;4954823;28;20205;-65
2022/12/06 12:51:47;;;;;;;6.25;4.80;;;5.90;89.00;;;;;;4951430;29;20188;-65
2022/12/06 12:54:29;;;;;;;8.77;6.40;;;5.90;87.90;;;;;;4953366;29;20272;-65
2022/12/06 12:56:57;;;;;;;10.57;6.35;;;5.90;87.50;;;;;;4949591;29;20241;-65
2022/12/06 12:59:36;;;;;;;13.48;8.05;;;5.90;87.30;;;;;;4953103;29;20208;-65
2022/12/06 13:02:15;;;;;;;11.60;7.10;;;5.90;87.60;;;;;;4950606;29;20219;-65
2022/12/06 13:04:46;;;;;;;14.65;7.05;;;6.00;88.20;;;;;;4956709;28;20345;-65
2022/12/06 13:07:23;;;;;;;9.25;6.00;;;6.00;88.00;;;;;;4954487;28;20276;-65
2022/12/06 13:09:57;;;;;;;7.22;5.60;;;6.00;87.90;;;;;;4961819;28;20202;-65
2022/12/06 13:12:31;;;;;;;6.45;4.88;;;6.00;87.70;;;;;;4961021;28;20200;-65
2022/12/06 13:15:04;;;;;;;9.85;5.60;;;6.00;87.90;;;;;;4951346;28;20216;-65
2022/12/06 13:17:34;;;;;;;7.32;5.20;;;6.00;88.10;;;;;;4952073;28;20272;-65
2022/12/06 13:20:14;;;;;;;5.72;4.30;;;6.00;87.80;;;;;;4956115;28;20201;-65
2022/12/06 13:22:44;;;;;;;6.35;4.30;;;6.00;88.00;;;;;;4958666;28;20631;-65
2022/12/06 13:25:14;;;;;;;6.57;4.38;;;6.10;88.30;;;;;;4962772;28;20692;-66
2022/12/06 13:27:45;;;;;;;5.38;4.40;;;6.10;88.10;;;;;;4961096;28;20197;-65
2022/12/06 13:30:17;;;;;;;5.22;3.85;;;6.00;87.70;;;;;;4953397;28;20198;-65
2022/12/06 13:32:47;;;;;;;5.57;4.03;;;6.10;88.00;;;;;;4954444;28;20607;-65
2022/12/06 13:35:25;;;;;;;6.78;4.45;;;6.10;87.90;;;;;;4961934;28;20213;-65
2022/12/06 13:37:54;;;;;;;6.90;4.82;;;6.10;87.90;;;;;;4957067;28;20656;-65
2022/12/06 13:40:51;;;;;;;5.80;3.72;;;6.00;87.60;;;;;;4962385;28;20209;-65
2022/12/06 13:43:49;;;;;;;6.75;4.60;;;6.00;87.60;;;;;;4954173;28;20284;-65
2022/12/06 13:46:25;;;;;;;7.68;5.60;;;6.00;87.70;;;;;;4928773;28;20206;-65